Main page
METAR-TAF:

METAR-TAF

Airports :

Garner Field

Uvalde, Texas, United States

latitude: 29-12-40N, longitude: 099-44-36W, elevation: 941 ft

Current weather observation

The report was made 8 minutes ago, at 13:15 UTC
Wind 5 mph from the North/Northeast
Temperature 41°F
Humidity 93%
Pressure 30.19 in. Hg
Visibility: 10 miles
Clear sky

METAR: KUVA 241315Z AUTO 03004KT 10SM CLR 05/04 A3019 RMK AO2 T00450041

Time: 07:23 (13:23 UTC)


TAF: missing

Weather observations and forecasts of more than 4000 airports (METAR and TAF reports).

The available stations are represented by yellow and red dots on the map.

Hover mouse over dot to see the name of the station.

Then click to see weather observations and forecasts.

To change the map : click on the green buttons with a black cross to zoom in, on the green button with a dash to zoom out, or on the green arrows for adjacent maps.


METAR-TAF: